sensor_id;sensor_type;location;lat;lon;timestamp;P1;durP1;ratioP1;P2;durP2;ratioP2
13425;SDS011;6785;57.918;12.530;2023-05-20T00:00:47;11.30;;;6.40;;
13425;SDS011;6785;57.918;12.530;2023-05-20T00:03:14;8.20;;;5.90;;
13425;SDS011;6785;57.918;12.530;2023-05-20T00:05:41;6.00;;;5.13;;
13425;SDS011;6785;57.918;12.530;2023-05-20T00:08:07;9.80;;;5.87;;
13425;SDS011;6785;57.918;12.530;2023-05-20T00:10:36;7.77;;;5.60;;
13425;SDS011;6785;57.918;12.530;2023-05-20T00:13:03;8.97;;;5.87;;
13425;SDS011;6785;57.918;12.530;2023-05-20T00:15:30;9.43;;;6.10;;
13425;SDS011;6785;57.918;12.530;2023-05-20T00:17:59;11.87;;;6.43;;
13425;SDS011;6785;57.918;12.530;2023-05-20T00:20:26;11.50;;;6.13;;
13425;SDS011;6785;57.918;12.530;2023-05-20T00:22:53;10.77;;;7.13;;
13425;SDS011;6785;57.918;12.530;2023-05-20T00:25:20;12.67;;;5.33;;
13425;SDS011;6785;57.918;12.530;2023-05-20T00:27:48;9.57;;;5.90;;
13425;SDS011;6785;57.918;12.530;2023-05-20T00:30:15;8.13;;;5.83;;
13425;SDS011;6785;57.918;12.530;2023-05-20T00:32:42;10.23;;;5.70;;
13425;SDS011;6785;57.918;12.530;2023-05-20T00:35:09;11.60;;;6.30;;
13425;SDS011;6785;57.918;12.530;2023-05-20T00:37:36;10.27;;;5.83;;
13425;SDS011;6785;57.918;12.530;2023-05-20T00:40:02;12.00;;;6.13;;
13425;SDS011;6785;57.918;12.530;2023-05-20T00:42:29;11.13;;;6.47;;
13425;SDS011;6785;57.918;12.530;2023-05-20T00:44:59;6.17;;;5.10;;
13425;SDS011;6785;57.918;12.530;2023-05-20T00:47:27;12.97;;;5.93;;
13425;SDS011;6785;57.918;12.530;2023-05-20T00:49:56;11.53;;;6.90;;
13425;SDS011;6785;57.918;12.530;2023-05-20T00:52:23;14.37;;;6.47;;
13425;SDS011;6785;57.918;12.530;2023-05-20T00:54:51;9.97;;;6.20;;
13425;SDS011;6785;57.918;12.530;2023-05-20T00:57:18;10.07;;;6.53;;
13425;SDS011;6785;57.918;12.530;2023-05-20T00:59:45;10.37;;;6.40;;
13425;SDS011;6785;57.918;12.530;2023-05-20T01:02:14;13.33;;;6.93;;
13425;SDS011;6785;57.918;12.530;2023-05-20T01:04:41;10.47;;;6.30;;
13425;SDS011;6785;57.918;12.530;2023-05-20T01:07:11;10.93;;;6.27;;
13425;SDS011;6785;57.918;12.530;2023-05-20T01:09:40;9.53;;;6.47;;
13425;SDS011;6785;57.918;12.530;2023-05-20T01:12:08;13.03;;;6.67;;
13425;SDS011;6785;57.918;12.530;2023-05-20T01:14:42;8.90;;;6.37;;
13425;SDS011;6785;57.918;12.530;2023-05-20T01:17:12;11.17;;;6.97;;
13425;SDS011;6785;57.918;12.530;2023-05-20T01:19:45;10.00;;;6.67;;
13425;SDS011;6785;57.918;12.530;2023-05-20T01:22:13;9.80;;;6.77;;
13425;SDS011;6785;57.918;12.530;2023-05-20T01:24:43;12.30;;;7.07;;
13425;SDS011;6785;57.918;12.530;2023-05-20T01:27:12;10.90;;;6.90;;
13425;SDS011;6785;57.918;12.530;2023-05-20T01:29:39;12.43;;;7.43;;
13425;SDS011;6785;57.918;12.530;2023-05-20T01:32:08;11.90;;;7.33;;
13425;SDS011;6785;57.918;12.530;2023-05-20T01:34:37;11.33;;;6.97;;
13425;SDS011;6785;57.918;12.530;2023-05-20T01:37:06;13.00;;;7.50;;
13425;SDS011;6785;57.918;12.530;2023-05-20T01:39:35;10.20;;;7.03;;
13425;SDS011;6785;57.918;12.530;2023-05-20T01:42:05;15.47;;;7.67;;
13425;SDS011;6785;57.918;12.530;2023-05-20T01:44:33;16.20;;;6.53;;
13425;SDS011;6785;57.918;12.530;2023-05-20T01:47:00;14.17;;;7.07;;
13425;SDS011;6785;57.918;12.530;2023-05-20T01:49:27;11.20;;;7.23;;
13425;SDS011;6785;57.918;12.530;2023-05-20T01:51:54;11.93;;;7.20;;
13425;SDS011;6785;57.918;12.530;2023-05-20T01:54:20;11.83;;;7.13;;
13425;SDS011;6785;57.918;12.530;2023-05-20T01:56:48;12.27;;;7.53;;
13425;SDS011;6785;57.918;12.530;2023-05-20T01:59:16;10.70;;;6.70;;
13425;SDS011;6785;57.918;12.530;2023-05-20T02:01:43;12.30;;;6.97;;
13425;SDS011;6785;57.918;12.530;2023-05-20T02:04:10;8.90;;;6.83;;
13425;SDS011;6785;57.918;12.530;2023-05-20T02:06:36;11.13;;;6.90;;
13425;SDS011;6785;57.918;12.530;2023-05-20T02:09:03;11.23;;;6.73;;
13425;SDS011;6785;57.918;12.530;2023-05-20T02:11:30;11.33;;;6.70;;
13425;SDS011;6785;57.918;12.530;2023-05-20T02:13:57;10.73;;;6.53;;
13425;SDS011;6785;57.918;12.530;2023-05-20T02:16:25;11.90;;;6.90;;
13425;SDS011;6785;57.918;12.530;2023-05-20T02:18:52;12.53;;;6.77;;
13425;SDS011;6785;57.918;12.530;2023-05-20T02:21:19;12.13;;;7.27;;
13425;SDS011;6785;57.918;12.530;2023-05-20T02:23:46;10.57;;;7.27;;
13425;SDS011;6785;57.918;12.530;2023-05-20T02:26:13;10.60;;;7.30;;
13425;SDS011;6785;57.918;12.530;2023-05-20T02:28:40;12.93;;;7.33;;
13425;SDS011;6785;57.918;12.530;2023-05-20T02:31:10;7.73;;;6.40;;
13425;SDS011;6785;57.918;12.530;2023-05-20T02:33:38;12.57;;;7.60;;
13425;SDS011;6785;57.918;12.530;2023-05-20T02:36:05;9.57;;;6.93;;
13425;SDS011;6785;57.918;12.530;2023-05-20T02:38:32;10.57;;;7.40;;
13425;SDS011;6785;57.918;12.530;2023-05-20T02:40:59;13.53;;;8.30;;
13425;SDS011;6785;57.918;12.530;2023-05-20T02:43:28;11.70;;;7.47;;
13425;SDS011;6785;57.918;12.530;2023-05-20T02:45:55;12.27;;;7.73;;
13425;SDS011;6785;57.918;12.530;2023-05-20T02:48:21;10.07;;;7.37;;
13425;SDS011;6785;57.918;12.530;2023-05-20T02:50:50;10.80;;;6.60;;
13425;SDS011;6785;57.918;12.530;2023-05-20T02:53:17;9.67;;;7.07;;
13425;SDS011;6785;57.918;12.530;2023-05-20T02:55:44;10.40;;;7.13;;
13425;SDS011;6785;57.918;12.530;2023-05-20T02:58:12;11.40;;;7.23;;
13425;SDS011;6785;57.918;12.530;2023-05-20T03:00:39;11.33;;;7.67;;
13425;SDS011;6785;57.918;12.530;2023-05-20T03:03:06;14.37;;;8.27;;
13425;SDS011;6785;57.918;12.530;2023-05-20T03:05:34;15.77;;;8.20;;
13425;SDS011;6785;57.918;12.530;2023-05-20T03:08:03;12.53;;;8.80;;
13425;SDS011;6785;57.918;12.530;2023-05-20T03:10:31;13.80;;;8.20;;
13425;SDS011;6785;57.918;12.530;2023-05-20T03:12:58;12.37;;;8.43;;
13425;SDS011;6785;57.918;12.530;2023-05-20T03:15:24;14.57;;;8.67;;
13425;SDS011;6785;57.918;12.530;2023-05-20T03:17:51;11.47;;;7.67;;
13425;SDS011;6785;57.918;12.530;2023-05-20T03:20:18;14.13;;;8.73;;
13425;SDS011;6785;57.918;12.530;2023-05-20T03:22:45;13.87;;;9.40;;
13425;SDS011;6785;57.918;12.530;2023-05-20T03:25:13;12.30;;;8.27;;
13425;SDS011;6785;57.918;12.530;2023-05-20T03:27:40;11.30;;;8.07;;
13425;SDS011;6785;57.918;12.530;2023-05-20T03:30:08;14.43;;;9.00;;
13425;SDS011;6785;57.918;12.530;2023-05-20T03:32:36;12.57;;;8.90;;
13425;SDS011;6785;57.918;12.530;2023-05-20T03:35:03;15.63;;;9.43;;
13425;SDS011;6785;57.918;12.530;2023-05-20T03:37:30;11.70;;;7.80;;
13425;SDS011;6785;57.918;12.530;2023-05-20T03:39:57;15.83;;;8.50;;
13425;SDS011;6785;57.918;12.530;2023-05-20T03:42:25;14.27;;;7.87;;
13425;SDS011;6785;57.918;12.530;2023-05-20T03:44:52;12.23;;;7.63;;
13425;SDS011;6785;57.918;12.530;2023-05-20T03:47:19;13.37;;;8.60;;
13425;SDS011;6785;57.918;12.530;2023-05-20T03:49:46;13.80;;;8.43;;
13425;SDS011;6785;57.918;12.530;2023-05-20T03:52:12;12.30;;;8.50;;
13425;SDS011;6785;57.918;12.530;2023-05-20T03:54:39;11.37;;;8.43;;
13425;SDS011;6785;57.918;12.530;2023-05-20T03:57:06;13.93;;;7.77;;
13425;SDS011;6785;57.918;12.530;2023-05-20T03:59:35;12.40;;;8.37;;
13425;SDS011;6785;57.918;12.530;2023-05-20T04:02:02;11.67;;;8.17;;
13425;SDS011;6785;57.918;12.530;2023-05-20T04:04:30;14.83;;;8.03;;
13425;SDS011;6785;57.918;12.530;2023-05-20T04:06:57;15.10;;;8.93;;
13425;SDS011;6785;57.918;12.530;2023-05-20T04:09:24;13.33;;;8.20;;
13425;SDS011;6785;57.918;12.530;2023-05-20T04:11:51;11.40;;;8.23;;
13425;SDS011;6785;57.918;12.530;2023-05-20T04:14:18;12.07;;;7.93;;
13425;SDS011;6785;57.918;12.530;2023-05-20T04:16:46;16.10;;;8.53;;
13425;SDS011;6785;57.918;12.530;2023-05-20T04:19:14;14.40;;;8.07;;
13425;SDS011;6785;57.918;12.530;2023-05-20T04:21:43;9.13;;;7.30;;
13425;SDS011;6785;57.918;12.530;2023-05-20T04:24:10;10.73;;;7.77;;
13425;SDS011;6785;57.918;12.530;2023-05-20T04:26:37;9.90;;;6.93;;
13425;SDS011;6785;57.918;12.530;2023-05-20T04:29:03;14.73;;;9.23;;
13425;SDS011;6785;57.918;12.530;2023-05-20T04:31:30;15.87;;;8.60;;
13425;SDS011;6785;57.918;12.530;2023-05-20T04:33:58;10.80;;;7.87;;
13425;SDS011;6785;57.918;12.530;2023-05-20T04:36:26;11.13;;;7.53;;
13425;SDS011;6785;57.918;12.530;2023-05-20T04:38:53;13.47;;;8.10;;
13425;SDS011;6785;57.918;12.530;2023-05-20T04:41:20;16.10;;;9.07;;
13425;SDS011;6785;57.918;12.530;2023-05-20T04:43:48;9.70;;;7.83;;
13425;SDS011;6785;57.918;12.530;2023-05-20T04:46:15;18.57;;;8.77;;
13425;SDS011;6785;57.918;12.530;2023-05-20T04:48:42;16.63;;;9.13;;
13425;SDS011;6785;57.918;12.530;2023-05-20T04:51:10;12.03;;;7.77;;
13425;SDS011;6785;57.918;12.530;2023-05-20T04:53:37;11.70;;;8.40;;
13425;SDS011;6785;57.918;12.530;2023-05-20T04:56:04;14.33;;;7.90;;
13425;SDS011;6785;57.918;12.530;2023-05-20T04:58:32;13.37;;;8.10;;
13425;SDS011;6785;57.918;12.530;2023-05-20T05:00:59;14.10;;;7.77;;
13425;SDS011;6785;57.918;12.530;2023-05-20T05:03:26;14.17;;;8.70;;
13425;SDS011;6785;57.918;12.530;2023-05-20T05:05:54;12.77;;;8.50;;
13425;SDS011;6785;57.918;12.530;2023-05-20T05:08:23;14.03;;;7.80;;
13425;SDS011;6785;57.918;12.530;2023-05-20T05:10:50;13.47;;;7.80;;
13425;SDS011;6785;57.918;12.530;2023-05-20T05:13:17;9.77;;;7.20;;
13425;SDS011;6785;57.918;12.530;2023-05-20T05:15:44;10.13;;;7.63;;
13425;SDS011;6785;57.918;12.530;2023-05-20T05:18:11;12.70;;;7.90;;
13425;SDS011;6785;57.918;12.530;2023-05-20T05:20:37;15.97;;;8.10;;
13425;SDS011;6785;57.918;12.530;2023-05-20T05:23:04;13.87;;;6.97;;
13425;SDS011;6785;57.918;12.530;2023-05-20T05:25:32;17.90;;;8.13;;
13425;SDS011;6785;57.918;12.530;2023-05-20T05:27:59;14.03;;;7.20;;
13425;SDS011;6785;57.918;12.530;2023-05-20T05:30:26;8.77;;;6.43;;
13425;SDS011;6785;57.918;12.530;2023-05-20T05:32:53;12.07;;;7.03;;
13425;SDS011;6785;57.918;12.530;2023-05-20T05:35:19;9.03;;;7.37;;
13425;SDS011;6785;57.918;12.530;2023-05-20T05:37:46;13.50;;;7.27;;
13425;SDS011;6785;57.918;12.530;2023-05-20T05:40:13;14.17;;;7.40;;
13425;SDS011;6785;57.918;12.530;2023-05-20T05:42:41;14.03;;;7.27;;
13425;SDS011;6785;57.918;12.530;2023-05-20T05:45:08;11.43;;;6.40;;
13425;SDS011;6785;57.918;12.530;2023-05-20T05:47:35;12.00;;;7.13;;
13425;SDS011;6785;57.918;12.530;2023-05-20T05:50:02;9.53;;;6.90;;
13425;SDS011;6785;57.918;12.530;2023-05-20T05:52:30;12.20;;;6.63;;
13425;SDS011;6785;57.918;12.530;2023-05-20T05:54:56;13.70;;;7.27;;
13425;SDS011;6785;57.918;12.530;2023-05-20T05:57:23;8.73;;;6.33;;
13425;SDS011;6785;57.918;12.530;2023-05-20T05:59:51;12.23;;;6.50;;
13425;SDS011;6785;57.918;12.530;2023-05-20T06:02:18;9.73;;;6.53;;
13425;SDS011;6785;57.918;12.530;2023-05-20T06:04:44;7.83;;;6.20;;
13425;SDS011;6785;57.918;12.530;2023-05-20T06:07:11;10.63;;;6.63;;
13425;SDS011;6785;57.918;12.530;2023-05-20T06:09:38;11.17;;;6.57;;
13425;SDS011;6785;57.918;12.530;2023-05-20T06:12:05;11.57;;;6.30;;
13425;SDS011;6785;57.918;12.530;2023-05-20T06:14:32;11.27;;;6.30;;
13425;SDS011;6785;57.918;12.530;2023-05-20T06:17:00;11.10;;;6.63;;
13425;SDS011;6785;57.918;12.530;2023-05-20T06:19:29;10.47;;;6.40;;
13425;SDS011;6785;57.918;12.530;2023-05-20T06:21:56;8.43;;;5.97;;
13425;SDS011;6785;57.918;12.530;2023-05-20T06:24:23;11.20;;;6.00;;
13425;SDS011;6785;57.918;12.530;2023-05-20T06:26:50;8.93;;;6.40;;
13425;SDS011;6785;57.918;12.530;2023-05-20T06:29:16;10.33;;;5.20;;
13425;SDS011;6785;57.918;12.530;2023-05-20T06:31:43;12.27;;;6.27;;
13425;SDS011;6785;57.918;12.530;2023-05-20T06:34:11;9.67;;;5.27;;
13425;SDS011;6785;57.918;12.530;2023-05-20T06:36:38;7.87;;;5.30;;
13425;SDS011;6785;57.918;12.530;2023-05-20T06:39:05;8.50;;;5.57;;
13425;SDS011;6785;57.918;12.530;2023-05-20T06:41:36;11.37;;;5.47;;
13425;SDS011;6785;57.918;12.530;2023-05-20T06:44:03;7.87;;;5.67;;
13425;SDS011;6785;57.918;12.530;2023-05-20T06:46:30;6.07;;;5.30;;
13425;SDS011;6785;57.918;12.530;2023-05-20T06:48:57;9.17;;;5.30;;
13425;SDS011;6785;57.918;12.530;2023-05-20T06:51:25;9.43;;;5.50;;
13425;SDS011;6785;57.918;12.530;2023-05-20T06:53:52;6.93;;;5.37;;
13425;SDS011;6785;57.918;12.530;2023-05-20T06:56:19;8.40;;;5.60;;
13425;SDS011;6785;57.918;12.530;2023-05-20T06:58:46;7.97;;;5.33;;
13425;SDS011;6785;57.918;12.530;2023-05-20T07:01:13;7.33;;;4.83;;
13425;SDS011;6785;57.918;12.530;2023-05-20T07:03:39;5.90;;;5.23;;
13425;SDS011;6785;57.918;12.530;2023-05-20T07:06:06;7.97;;;5.43;;
13425;SDS011;6785;57.918;12.530;2023-05-20T07:08:34;7.80;;;5.00;;
13425;SDS011;6785;57.918;12.530;2023-05-20T07:11:01;6.37;;;4.90;;
13425;SDS011;6785;57.918;12.530;2023-05-20T07:13:28;8.70;;;4.70;;
13425;SDS011;6785;57.918;12.530;2023-05-20T07:15:55;9.33;;;5.27;;
13425;SDS011;6785;57.918;12.530;2023-05-20T07:18:22;7.03;;;4.40;;
13425;SDS011;6785;57.918;12.530;2023-05-20T07:20:48;9.60;;;5.43;;
13425;SDS011;6785;57.918;12.530;2023-05-20T07:23:15;7.50;;;5.17;;
13425;SDS011;6785;57.918;12.530;2023-05-20T07:25:43;6.13;;;4.80;;
13425;SDS011;6785;57.918;12.530;2023-05-20T07:28:10;6.30;;;4.50;;
13425;SDS011;6785;57.918;12.530;2023-05-20T07:30:36;4.83;;;3.83;;
13425;SDS011;6785;57.918;12.530;2023-05-20T07:33:03;10.40;;;5.03;;
13425;SDS011;6785;57.918;12.530;2023-05-20T07:35:30;4.93;;;3.90;;
13425;SDS011;6785;57.918;12.530;2023-05-20T07:37:57;6.40;;;4.83;;
13425;SDS011;6785;57.918;12.530;2023-05-20T07:40:23;5.80;;;4.60;;
13425;SDS011;6785;57.918;12.530;2023-05-20T07:42:51;9.17;;;4.77;;
13425;SDS011;6785;57.918;12.530;2023-05-20T07:45:18;5.70;;;4.40;;
13425;SDS011;6785;57.918;12.530;2023-05-20T07:47:45;7.33;;;4.73;;
13425;SDS011;6785;57.918;12.530;2023-05-20T07:50:11;7.60;;;4.40;;
13425;SDS011;6785;57.918;12.530;2023-05-20T07:52:38;9.20;;;4.27;;
13425;SDS011;6785;57.918;12.530;2023-05-20T07:55:05;5.10;;;4.37;;
13425;SDS011;6785;57.918;12.530;2023-05-20T07:57:32;6.10;;;4.60;;
13425;SDS011;6785;57.918;12.530;2023-05-20T08:00:00;6.70;;;3.97;;
13425;SDS011;6785;57.918;12.530;2023-05-20T08:02:27;6.63;;;3.73;;
13425;SDS011;6785;57.918;12.530;2023-05-20T08:04:54;4.80;;;4.37;;
13425;SDS011;6785;57.918;12.530;2023-05-20T08:07:21;5.73;;;3.83;;
13425;SDS011;6785;57.918;12.530;2023-05-20T08:09:47;5.07;;;3.90;;
13425;SDS011;6785;57.918;12.530;2023-05-20T08:12:14;6.40;;;3.80;;
13425;SDS011;6785;57.918;12.530;2023-05-20T08:14:41;4.20;;;3.33;;
13425;SDS011;6785;57.918;12.530;2023-05-20T08:17:09;4.10;;;2.97;;
13425;SDS011;6785;57.918;12.530;2023-05-20T08:19:36;3.90;;;2.83;;
13425;SDS011;6785;57.918;12.530;2023-05-20T08:22:02;7.43;;;3.07;;
13425;SDS011;6785;57.918;12.530;2023-05-20T08:24:30;3.80;;;2.87;;
13425;SDS011;6785;57.918;12.530;2023-05-20T08:26:56;5.03;;;3.40;;
13425;SDS011;6785;57.918;12.530;2023-05-20T08:29:23;4.83;;;3.43;;
13425;SDS011;6785;57.918;12.530;2023-05-20T08:31:50;5.10;;;2.67;;
13425;SDS011;6785;57.918;12.530;2023-05-20T08:34:18;4.37;;;2.80;;
13425;SDS011;6785;57.918;12.530;2023-05-20T08:36:45;5.40;;;3.40;;
13425;SDS011;6785;57.918;12.530;2023-05-20T08:39:12;5.50;;;3.03;;
13425;SDS011;6785;57.918;12.530;2023-05-20T08:41:39;5.60;;;3.00;;
13425;SDS011;6785;57.918;12.530;2023-05-20T08:44:06;4.97;;;3.33;;
13425;SDS011;6785;57.918;12.530;2023-05-20T08:46:34;5.47;;;3.23;;
13425;SDS011;6785;57.918;12.530;2023-05-20T08:49:01;6.70;;;3.40;;
13425;SDS011;6785;57.918;12.530;2023-05-20T08:51:30;6.03;;;3.70;;
13425;SDS011;6785;57.918;12.530;2023-05-20T08:54:01;5.20;;;3.63;;
13425;SDS011;6785;57.918;12.530;2023-05-20T08:56:28;6.63;;;3.40;;
13425;SDS011;6785;57.918;12.530;2023-05-20T08:58:56;6.17;;;3.57;;
13425;SDS011;6785;57.918;12.530;2023-05-20T09:01:23;7.33;;;3.23;;
13425;SDS011;6785;57.918;12.530;2023-05-20T09:03:50;5.67;;;3.60;;
13425;SDS011;6785;57.918;12.530;2023-05-20T09:06:17;5.30;;;3.03;;
13425;SDS011;6785;57.918;12.530;2023-05-20T09:08:47;3.43;;;3.07;;
13425;SDS011;6785;57.918;12.530;2023-05-20T09:11:15;4.57;;;2.80;;
13425;SDS011;6785;57.918;12.530;2023-05-20T09:13:42;5.33;;;2.97;;
13425;SDS011;6785;57.918;12.530;2023-05-20T09:16:09;5.37;;;3.20;;
13425;SDS011;6785;57.918;12.530;2023-05-20T09:18:37;4.93;;;3.40;;
13425;SDS011;6785;57.918;12.530;2023-05-20T09:21:04;6.47;;;2.90;;
13425;SDS011;6785;57.918;12.530;2023-05-20T09:23:31;5.13;;;3.10;;
13425;SDS011;6785;57.918;12.530;2023-05-20T09:26:00;5.17;;;3.10;;
13425;SDS011;6785;57.918;12.530;2023-05-20T09:28:27;7.53;;;3.50;;
13425;SDS011;6785;57.918;12.530;2023-05-20T09:30:56;4.97;;;3.17;;
13425;SDS011;6785;57.918;12.530;2023-05-20T09:33:26;6.47;;;3.03;;
13425;SDS011;6785;57.918;12.530;2023-05-20T09:36:00;4.30;;;3.10;;
13425;SDS011;6785;57.918;12.530;2023-05-20T09:38:29;4.43;;;2.77;;
13425;SDS011;6785;57.918;12.530;2023-05-20T09:41:03;8.37;;;3.00;;
13425;SDS011;6785;57.918;12.530;2023-05-20T09:43:33;4.23;;;2.77;;
13425;SDS011;6785;57.918;12.530;2023-05-20T09:46:00;6.90;;;2.80;;
13425;SDS011;6785;57.918;12.530;2023-05-20T09:48:28;3.60;;;2.63;;
13425;SDS011;6785;57.918;12.530;2023-05-20T09:50:55;3.40;;;3.00;;
13425;SDS011;6785;57.918;12.530;2023-05-20T09:53:22;4.90;;;3.07;;
13425;SDS011;6785;57.918;12.530;2023-05-20T09:55:53;5.10;;;2.70;;
13425;SDS011;6785;57.918;12.530;2023-05-20T09:58:22;5.83;;;2.80;;
13425;SDS011;6785;57.918;12.530;2023-05-20T10:00:50;2.83;;;2.60;;
13425;SDS011;6785;57.918;12.530;2023-05-20T10:03:17;5.40;;;3.10;;
13425;SDS011;6785;57.918;12.530;2023-05-20T10:05:50;5.07;;;2.87;;
13425;SDS011;6785;57.918;12.530;2023-05-20T10:08:36;4.20;;;2.93;;
13425;SDS011;6785;57.918;12.530;2023-05-20T10:11:16;3.97;;;2.70;;
13425;SDS011;6785;57.918;12.530;2023-05-20T10:13:57;3.60;;;2.57;;
13425;SDS011;6785;57.918;12.530;2023-05-20T10:16:37;3.80;;;2.37;;
13425;SDS011;6785;57.918;12.530;2023-05-20T10:19:15;4.97;;;2.70;;
13425;SDS011;6785;57.918;12.530;2023-05-20T10:21:57;6.53;;;2.73;;
13425;SDS011;6785;57.918;12.530;2023-05-20T10:24:29;4.20;;;2.77;;
13425;SDS011;6785;57.918;12.530;2023-05-20T10:26:57;5.27;;;2.47;;
13425;SDS011;6785;57.918;12.530;2023-05-20T10:29:26;6.17;;;2.70;;
13425;SDS011;6785;57.918;12.530;2023-05-20T10:31:54;4.60;;;2.90;;
13425;SDS011;6785;57.918;12.530;2023-05-20T10:34:21;4.23;;;2.70;;
13425;SDS011;6785;57.918;12.530;2023-05-20T10:36:56;4.60;;;2.70;;
13425;SDS011;6785;57.918;12.530;2023-05-20T10:39:24;3.73;;;2.33;;
13425;SDS011;6785;57.918;12.530;2023-05-20T10:42:03;3.43;;;2.40;;
13425;SDS011;6785;57.918;12.530;2023-05-20T10:44:40;4.30;;;2.87;;
13425;SDS011;6785;57.918;12.530;2023-05-20T10:47:08;5.00;;;2.37;;
13425;SDS011;6785;57.918;12.530;2023-05-20T10:49:34;4.03;;;2.50;;
13425;SDS011;6785;57.918;12.530;2023-05-20T10:52:06;5.63;;;2.73;;
13425;SDS011;6785;57.918;12.530;2023-05-20T10:54:34;7.63;;;2.60;;
13425;SDS011;6785;57.918;12.530;2023-05-20T10:57:05;6.67;;;2.53;;
13425;SDS011;6785;57.918;12.530;2023-05-20T10:59:33;4.43;;;2.63;;
13425;SDS011;6785;57.918;12.530;2023-05-20T11:02:02;6.20;;;3.07;;
13425;SDS011;6785;57.918;12.530;2023-05-20T11:04:30;4.27;;;2.40;;
13425;SDS011;6785;57.918;12.530;2023-05-20T11:06:58;5.30;;;2.60;;
13425;SDS011;6785;57.918;12.530;2023-05-20T11:09:24;8.00;;;2.60;;
13425;SDS011;6785;57.918;12.530;2023-05-20T11:11:51;4.70;;;2.67;;
13425;SDS011;6785;57.918;12.530;2023-05-20T11:14:20;5.83;;;2.47;;
13425;SDS011;6785;57.918;12.530;2023-05-20T11:16:49;3.23;;;2.13;;
13425;SDS011;6785;57.918;12.530;2023-05-20T11:19:18;3.87;;;2.33;;
13425;SDS011;6785;57.918;12.530;2023-05-20T11:21:46;4.20;;;2.40;;
13425;SDS011;6785;57.918;12.530;2023-05-20T11:24:13;4.80;;;2.20;;
13425;SDS011;6785;57.918;12.530;2023-05-20T11:26:47;3.80;;;2.10;;
13425;SDS011;6785;57.918;12.530;2023-05-20T11:29:13;3.30;;;2.20;;
13425;SDS011;6785;57.918;12.530;2023-05-20T11:31:40;3.80;;;2.20;;
13425;SDS011;6785;57.918;12.530;2023-05-20T11:34:08;2.53;;;1.77;;
13425;SDS011;6785;57.918;12.530;2023-05-20T11:36:40;3.97;;;2.00;;
13425;SDS011;6785;57.918;12.530;2023-05-20T11:39:08;3.40;;;2.00;;
13425;SDS011;6785;57.918;12.530;2023-05-20T11:41:35;6.70;;;2.00;;
13425;SDS011;6785;57.918;12.530;2023-05-20T11:44:03;3.90;;;2.20;;
13425;SDS011;6785;57.918;12.530;2023-05-20T11:46:30;4.70;;;2.37;;
13425;SDS011;6785;57.918;12.530;2023-05-20T11:48:56;3.57;;;2.10;;
13425;SDS011;6785;57.918;12.530;2023-05-20T11:51:23;6.40;;;2.60;;
13425;SDS011;6785;57.918;12.530;2023-05-20T11:53:57;3.77;;;2.07;;
13425;SDS011;6785;57.918;12.530;2023-05-20T11:56:26;6.57;;;2.60;;
13425;SDS011;6785;57.918;12.530;2023-05-20T11:58:55;4.73;;;2.13;;
13425;SDS011;6785;57.918;12.530;2023-05-20T12:01:22;5.78;;;2.53;;
13425;SDS011;6785;57.918;12.530;2023-05-20T12:03:49;4.17;;;1.97;;
13425;SDS011;6785;57.918;12.530;2023-05-20T12:06:16;5.43;;;2.50;;
13425;SDS011;6785;57.918;12.530;2023-05-20T12:08:43;2.30;;;2.10;;
13425;SDS011;6785;57.918;12.530;2023-05-20T12:11:11;3.93;;;2.47;;
13425;SDS011;6785;57.918;12.530;2023-05-20T12:13:38;2.87;;;2.10;;
13425;SDS011;6785;57.918;12.530;2023-05-20T12:16:05;3.40;;;2.10;;
13425;SDS011;6785;57.918;12.530;2023-05-20T12:18:32;4.10;;;1.90;;
13425;SDS011;6785;57.918;12.530;2023-05-20T12:20:59;4.73;;;2.20;;
13425;SDS011;6785;57.918;12.530;2023-05-20T12:23:25;3.70;;;2.40;;
13425;SDS011;6785;57.918;12.530;2023-05-20T12:25:54;4.65;;;2.13;;
13425;SDS011;6785;57.918;12.530;2023-05-20T12:28:22;4.63;;;2.00;;
13425;SDS011;6785;57.918;12.530;2023-05-20T12:30:49;4.03;;;2.10;;
13425;SDS011;6785;57.918;12.530;2023-05-20T12:33:16;7.80;;;2.27;;
13425;SDS011;6785;57.918;12.530;2023-05-20T12:35:44;4.70;;;2.20;;
13425;SDS011;6785;57.918;12.530;2023-05-20T12:38:11;3.83;;;2.10;;
13425;SDS011;6785;57.918;12.530;2023-05-20T12:40:38;3.80;;;1.83;;
13425;SDS011;6785;57.918;12.530;2023-05-20T12:43:04;4.17;;;1.93;;
13425;SDS011;6785;57.918;12.530;2023-05-20T12:45:33;6.10;;;2.40;;
13425;SDS011;6785;57.918;12.530;2023-05-20T12:47:59;2.90;;;2.10;;
13425;SDS011;6785;57.918;12.530;2023-05-20T12:50:27;2.77;;;1.83;;
13425;SDS011;6785;57.918;12.530;2023-05-20T12:52:53;3.90;;;2.00;;
13425;SDS011;6785;57.918;12.530;2023-05-20T12:55:20;2.20;;;2.00;;
13425;SDS011;6785;57.918;12.530;2023-05-20T12:57:47;3.30;;;2.10;;
13425;SDS011;6785;57.918;12.530;2023-05-20T13:00:15;3.17;;;2.08;;
13425;SDS011;6785;57.918;12.530;2023-05-20T13:02:43;2.20;;;1.97;;
13425;SDS011;6785;57.918;12.530;2023-05-20T13:05:10;3.67;;;2.00;;
13425;SDS011;6785;57.918;12.530;2023-05-20T13:07:37;3.90;;;2.20;;
13425;SDS011;6785;57.918;12.530;2023-05-20T13:10:04;3.67;;;2.20;;
13425;SDS011;6785;57.918;12.530;2023-05-20T13:12:32;3.57;;;2.43;;
13425;SDS011;6785;57.918;12.530;2023-05-20T13:14:59;2.83;;;2.13;;
13425;SDS011;6785;57.918;12.530;2023-05-20T13:17:26;3.20;;;1.93;;
13425;SDS011;6785;57.918;12.530;2023-05-20T13:19:55;2.85;;;2.00;;
13425;SDS011;6785;57.918;12.530;2023-05-20T13:22:22;3.88;;;2.17;;
13425;SDS011;6785;57.918;12.530;2023-05-20T13:24:48;2.55;;;1.88;;
13425;SDS011;6785;57.918;12.530;2023-05-20T13:27:15;3.30;;;2.00;;
13425;SDS011;6785;57.918;12.530;2023-05-20T13:29:42;3.10;;;1.90;;
13425;SDS011;6785;57.918;12.530;2023-05-20T13:32:09;3.92;;;2.15;;
13425;SDS011;6785;57.918;12.530;2023-05-20T13:34:35;4.03;;;2.10;;
13425;SDS011;6785;57.918;12.530;2023-05-20T13:37:04;3.70;;;2.03;;
13425;SDS011;6785;57.918;12.530;2023-05-20T13:39:31;3.45;;;1.88;;
13425;SDS011;6785;57.918;12.530;2023-05-20T13:41:58;5.00;;;2.40;;
13425;SDS011;6785;57.918;12.530;2023-05-20T13:44:24;2.83;;;2.00;;
13425;SDS011;6785;57.918;12.530;2023-05-20T13:46:51;4.07;;;2.00;;
13425;SDS011;6785;57.918;12.530;2023-05-20T13:49:18;3.63;;;2.15;;
13425;SDS011;6785;57.918;12.530;2023-05-20T13:51:45;5.15;;;2.20;;
13425;SDS011;6785;57.918;12.530;2023-05-20T13:54:13;6.85;;;2.35;;
13425;SDS011;6785;57.918;12.530;2023-05-20T13:56:42;3.17;;;2.10;;
13425;SDS011;6785;57.918;12.530;2023-05-20T13:59:09;4.07;;;2.17;;
13425;SDS011;6785;57.918;12.530;2023-05-20T14:01:36;4.03;;;2.00;;
13425;SDS011;6785;57.918;12.530;2023-05-20T14:04:03;4.95;;;2.00;;
13425;SDS011;6785;57.918;12.530;2023-05-20T14:06:29;6.38;;;2.33;;
13425;SDS011;6785;57.918;12.530;2023-05-20T14:08:56;3.85;;;2.20;;
13425;SDS011;6785;57.918;12.530;2023-05-20T14:11:24;2.88;;;1.80;;
13425;SDS011;6785;57.918;12.530;2023-05-20T14:13:51;3.77;;;1.87;;
13425;SDS011;6785;57.918;12.530;2023-05-20T14:16:18;5.70;;;2.25;;
13425;SDS011;6785;57.918;12.530;2023-05-20T14:18:45;3.63;;;2.10;;
13425;SDS011;6785;57.918;12.530;2023-05-20T14:21:11;3.53;;;2.07;;
13425;SDS011;6785;57.918;12.530;2023-05-20T14:23:38;4.15;;;2.20;;
13425;SDS011;6785;57.918;12.530;2023-05-20T14:26:08;3.78;;;2.22;;
13425;SDS011;6785;57.918;12.530;2023-05-20T14:28:36;3.55;;;2.05;;
13425;SDS011;6785;57.918;12.530;2023-05-20T14:31:03;2.53;;;2.13;;
13425;SDS011;6785;57.918;12.530;2023-05-20T14:33:30;3.47;;;2.25;;
13425;SDS011;6785;57.918;12.530;2023-05-20T14:35:57;5.30;;;2.10;;
13425;SDS011;6785;57.918;12.530;2023-05-20T14:38:24;4.80;;;2.07;;
13425;SDS011;6785;57.918;12.530;2023-05-20T14:40:51;3.75;;;2.10;;
13425;SDS011;6785;57.918;12.530;2023-05-20T14:43:18;4.50;;;2.08;;
13425;SDS011;6785;57.918;12.530;2023-05-20T14:45:46;6.33;;;2.20;;